Terminal Aerodrome Forecast
Issued by NWS

Home | Current Version | Previous Version | Graphics & Text | Print | Product List | Glossary On
Versions: 1 2 3 4 5 6 7 8 9 10 11 12 13 14 15 16 17 18 19 20 21 22 23 24
000
FTUS43 KPAH 191000 AAA
TAFCGI
TAF AMD
KCGI 191037Z 1911/2006 00000KT 1/4SM FG VV002
      TEMPO 1911/1912 2SM BR SCT002
     FM191200 00000KT 3SM BR SCT002
      TEMPO 1912/1913 1/2SM FG VV002
     FM191400 23006KT P6SM SCT050=

USA.gov is the U.S. government's official web portal to all federal, state and local government web resources and services.